sensor_id;sensor_type;location;lat;lon;timestamp;pressure;altitude;pressure_sealevel;temperature;humidity
77235;BME280;66253;50.526;14.974;2024-03-02T00:01:00;98151.11;;;9.63;100.00
77235;BME280;66253;50.526;14.974;2024-03-02T00:03:28;98151.61;;;9.63;100.00
77235;BME280;66253;50.526;14.974;2024-03-02T00:05:56;98152.23;;;9.64;100.00
77235;BME280;66253;50.526;14.974;2024-03-02T00:08:28;98156.66;;;9.64;100.00
77235;BME280;66253;50.526;14.974;2024-03-02T00:11:00;98155.48;;;9.64;100.00
77235;BME280;66253;50.526;14.974;2024-03-02T00:13:30;98151.45;;;9.63;100.00
77235;BME280;66253;50.526;14.974;2024-03-02T00:16:01;98154.05;;;9.65;100.00
77235;BME280;66253;50.526;14.974;2024-03-02T00:18:32;98152.10;;;9.63;100.00
77235;BME280;66253;50.526;14.974;2024-03-02T00:21:01;98150.52;;;9.64;100.00
77235;BME280;66253;50.526;14.974;2024-03-02T00:23:32;98152.52;;;9.65;100.00
77235;BME280;66253;50.526;14.974;2024-03-02T00:26:03;98149.27;;;9.65;100.00
77235;BME280;66253;50.526;14.974;2024-03-02T00:28:33;98149.08;;;9.65;100.00
77235;BME280;66253;50.526;14.974;2024-03-02T00:31:03;98150.24;;;9.66;100.00
77235;BME280;66253;50.526;14.974;2024-03-02T00:33:34;98150.18;;;9.67;100.00
77235;BME280;66253;50.526;14.974;2024-03-02T00:36:03;98149.65;;;9.67;100.00
77235;BME280;66253;50.526;14.974;2024-03-02T00:38:33;98148.13;;;9.67;100.00
77235;BME280;66253;50.526;14.974;2024-03-02T00:41:05;98151.35;;;9.67;100.00
77235;BME280;66253;50.526;14.974;2024-03-02T00:43:42;98151.03;;;9.67;100.00
77235;BME280;66253;50.526;14.974;2024-03-02T00:46:12;98153.53;;;9.68;100.00
77235;BME280;66253;50.526;14.974;2024-03-02T00:48:40;98152.30;;;9.66;100.00
77235;BME280;66253;50.526;14.974;2024-03-02T00:51:13;98155.70;;;9.65;100.00
77235;BME280;66253;50.526;14.974;2024-03-02T00:53:41;98156.52;;;9.64;100.00
77235;BME280;66253;50.526;14.974;2024-03-02T00:56:10;98156.19;;;9.63;100.00
77235;BME280;66253;50.526;14.974;2024-03-02T00:58:39;98154.02;;;9.63;100.00
77235;BME280;66253;50.526;14.974;2024-03-02T01:01:07;98154.95;;;9.62;100.00
77235;BME280;66253;50.526;14.974;2024-03-02T01:03:36;98159.37;;;9.62;100.00
77235;BME280;66253;50.526;14.974;2024-03-02T01:06:04;98159.33;;;9.62;100.00
77235;BME280;66253;50.526;14.974;2024-03-02T01:08:33;98162.35;;;9.63;100.00
77235;BME280;66253;50.526;14.974;2024-03-02T01:11:01;98159.66;;;9.63;100.00
77235;BME280;66253;50.526;14.974;2024-03-02T01:13:30;98159.48;;;9.62;100.00
77235;BME280;66253;50.526;14.974;2024-03-02T01:15:59;98160.98;;;9.61;100.00
77235;BME280;66253;50.526;14.974;2024-03-02T01:18:28;98160.96;;;9.61;100.00
77235;BME280;66253;50.526;14.974;2024-03-02T01:20:56;98158.05;;;9.61;100.00
77235;BME280;66253;50.526;14.974;2024-03-02T01:23:24;98155.33;;;9.61;100.00
77235;BME280;66253;50.526;14.974;2024-03-02T01:25:53;98153.05;;;9.62;100.00
77235;BME280;66253;50.526;14.974;2024-03-02T01:28:21;98153.17;;;9.63;100.00
77235;BME280;66253;50.526;14.974;2024-03-02T01:30:49;98152.59;;;9.64;100.00
77235;BME280;66253;50.526;14.974;2024-03-02T01:33:18;98153.59;;;9.64;100.00
77235;BME280;66253;50.526;14.974;2024-03-02T01:35:48;98153.08;;;9.64;100.00
77235;BME280;66253;50.526;14.974;2024-03-02T01:38:16;98152.42;;;9.64;100.00
77235;BME280;66253;50.526;14.974;2024-03-02T01:40:44;98155.12;;;9.64;100.00
77235;BME280;66253;50.526;14.974;2024-03-02T01:43:13;98154.33;;;9.63;100.00
77235;BME280;66253;50.526;14.974;2024-03-02T01:45:41;98155.95;;;9.62;100.00
77235;BME280;66253;50.526;14.974;2024-03-02T01:48:09;98153.40;;;9.62;100.00
77235;BME280;66253;50.526;14.974;2024-03-02T01:50:38;98152.27;;;9.61;100.00
77235;BME280;66253;50.526;14.974;2024-03-02T01:53:06;98153.73;;;9.59;100.00
77235;BME280;66253;50.526;14.974;2024-03-02T01:55:34;98151.29;;;9.58;100.00
77235;BME280;66253;50.526;14.974;2024-03-02T01:58:03;98148.58;;;9.58;100.00
77235;BME280;66253;50.526;14.974;2024-03-02T02:00:31;98150.08;;;9.58;100.00
77235;BME280;66253;50.526;14.974;2024-03-02T02:02:59;98147.41;;;9.57;100.00
77235;BME280;66253;50.526;14.974;2024-03-02T02:05:29;98148.82;;;9.59;100.00
77235;BME280;66253;50.526;14.974;2024-03-02T02:07:58;98151.80;;;9.61;100.00
77235;BME280;66253;50.526;14.974;2024-03-02T02:10:26;98149.40;;;9.60;100.00
77235;BME280;66253;50.526;14.974;2024-03-02T02:12:54;98144.99;;;9.60;100.00
77235;BME280;66253;50.526;14.974;2024-03-02T02:15:29;98147.02;;;9.61;100.00
77235;BME280;66253;50.526;14.974;2024-03-02T02:17:58;98145.52;;;9.60;100.00
77235;BME280;66253;50.526;14.974;2024-03-02T02:20:27;98146.15;;;9.61;100.00
77235;BME280;66253;50.526;14.974;2024-03-02T02:22:57;98148.91;;;9.60;100.00
77235;BME280;66253;50.526;14.974;2024-03-02T02:25:25;98145.51;;;9.60;100.00
77235;BME280;66253;50.526;14.974;2024-03-02T02:27:53;98141.40;;;9.60;100.00
77235;BME280;66253;50.526;14.974;2024-03-02T02:30:24;98141.96;;;9.62;100.00
77235;BME280;66253;50.526;14.974;2024-03-02T02:32:52;98141.39;;;9.63;100.00
77235;BME280;66253;50.526;14.974;2024-03-02T02:35:23;98141.23;;;9.63;100.00
77235;BME280;66253;50.526;14.974;2024-03-02T02:37:49;98144.31;;;9.63;99.97
77235;BME280;66253;50.526;14.974;2024-03-02T02:40:18;98136.50;;;9.62;99.91
77235;BME280;66253;50.526;14.974;2024-03-02T02:42:46;98137.25;;;9.61;99.98
77235;BME280;66253;50.526;14.974;2024-03-02T02:45:15;98138.15;;;9.61;99.88
77235;BME280;66253;50.526;14.974;2024-03-02T02:47:44;98134.95;;;9.60;99.78
77235;BME280;66253;50.526;14.974;2024-03-02T02:50:13;98137.46;;;9.58;99.78
77235;BME280;66253;50.526;14.974;2024-03-02T02:52:41;98136.15;;;9.58;99.71
77235;BME280;66253;50.526;14.974;2024-03-02T02:55:11;98137.70;;;9.57;99.76
77235;BME280;66253;50.526;14.974;2024-03-02T02:57:41;98136.19;;;9.57;99.77
77235;BME280;66253;50.526;14.974;2024-03-02T03:00:12;98138.05;;;9.57;99.77
77235;BME280;66253;50.526;14.974;2024-03-02T03:02:41;98138.71;;;9.57;99.38
77235;BME280;66253;50.526;14.974;2024-03-02T03:05:10;98143.21;;;9.59;99.70
77235;BME280;66253;50.526;14.974;2024-03-02T03:07:40;98139.96;;;9.59;99.78
77235;BME280;66253;50.526;14.974;2024-03-02T03:10:08;98140.43;;;9.59;99.13
77235;BME280;66253;50.526;14.974;2024-03-02T03:12:36;98139.98;;;9.59;99.28
77235;BME280;66253;50.526;14.974;2024-03-02T03:15:05;98145.13;;;9.58;99.30
77235;BME280;66253;50.526;14.974;2024-03-02T03:17:34;98143.98;;;9.57;99.27
77235;BME280;66253;50.526;14.974;2024-03-02T03:20:02;98143.73;;;9.59;99.30
77235;BME280;66253;50.526;14.974;2024-03-02T03:22:31;98144.55;;;9.59;98.85
77235;BME280;66253;50.526;14.974;2024-03-02T03:24:59;98141.16;;;9.59;98.84
77235;BME280;66253;50.526;14.974;2024-03-02T03:27:27;98141.79;;;9.57;98.79
77235;BME280;66253;50.526;14.974;2024-03-02T03:29:55;98144.54;;;9.59;98.88
77235;BME280;66253;50.526;14.974;2024-03-02T03:32:23;98145.66;;;9.58;98.50
77235;BME280;66253;50.526;14.974;2024-03-02T03:34:52;98147.95;;;9.57;98.84
77235;BME280;66253;50.526;14.974;2024-03-02T03:37:20;98152.01;;;9.55;98.60
77235;BME280;66253;50.526;14.974;2024-03-02T03:39:48;98156.38;;;9.53;98.63
77235;BME280;66253;50.526;14.974;2024-03-02T03:42:16;98154.70;;;9.53;98.88
77235;BME280;66253;50.526;14.974;2024-03-02T03:44:44;98156.54;;;9.53;98.55
77235;BME280;66253;50.526;14.974;2024-03-02T03:47:12;98159.80;;;9.53;98.70
77235;BME280;66253;50.526;14.974;2024-03-02T03:49:41;98157.05;;;9.53;98.65
77235;BME280;66253;50.526;14.974;2024-03-02T03:52:09;98159.75;;;9.54;98.58
77235;BME280;66253;50.526;14.974;2024-03-02T03:54:37;98160.77;;;9.54;98.42
77235;BME280;66253;50.526;14.974;2024-03-02T03:57:05;98159.24;;;9.54;98.29
77235;BME280;66253;50.526;14.974;2024-03-02T03:59:33;98165.86;;;9.52;98.13
77235;BME280;66253;50.526;14.974;2024-03-02T04:02:02;98165.63;;;9.50;98.03
77235;BME280;66253;50.526;14.974;2024-03-02T04:04:30;98167.32;;;9.48;97.97
77235;BME280;66253;50.526;14.974;2024-03-02T04:06:58;98167.34;;;9.45;98.00
77235;BME280;66253;50.526;14.974;2024-03-02T04:09:28;98169.14;;;9.44;97.82
77235;BME280;66253;50.526;14.974;2024-03-02T04:11:59;98171.39;;;9.43;98.08
77235;BME280;66253;50.526;14.974;2024-03-02T04:14:27;98173.10;;;9.43;97.52
77235;BME280;66253;50.526;14.974;2024-03-02T04:16:58;98172.80;;;9.42;97.22
77235;BME280;66253;50.526;14.974;2024-03-02T04:19:26;98176.73;;;9.42;97.16
77235;BME280;66253;50.526;14.974;2024-03-02T04:21:54;98182.73;;;9.42;96.98
77235;BME280;66253;50.526;14.974;2024-03-02T04:24:22;98182.33;;;9.40;96.76
77235;BME280;66253;50.526;14.974;2024-03-02T04:26:51;98189.19;;;9.39;96.51
77235;BME280;66253;50.526;14.974;2024-03-02T04:29:19;98189.20;;;9.37;96.51
77235;BME280;66253;50.526;14.974;2024-03-02T04:31:47;98191.09;;;9.34;96.33
77235;BME280;66253;50.526;14.974;2024-03-02T04:34:15;98192.17;;;9.33;96.31
77235;BME280;66253;50.526;14.974;2024-03-02T04:36:43;98194.89;;;9.31;96.27
77235;BME280;66253;50.526;14.974;2024-03-02T04:39:11;98196.92;;;9.29;95.79
77235;BME280;66253;50.526;14.974;2024-03-02T04:41:39;98199.09;;;9.27;96.07
77235;BME280;66253;50.526;14.974;2024-03-02T04:44:07;98202.21;;;9.26;96.28
77235;BME280;66253;50.526;14.974;2024-03-02T04:46:36;98205.94;;;9.24;95.97
77235;BME280;66253;50.526;14.974;2024-03-02T04:49:04;98204.32;;;9.23;95.82
77235;BME280;66253;50.526;14.974;2024-03-02T04:51:32;98202.30;;;9.22;95.57
77235;BME280;66253;50.526;14.974;2024-03-02T04:54:02;98205.90;;;9.22;95.48
77235;BME280;66253;50.526;14.974;2024-03-02T04:56:28;98208.17;;;9.21;95.36
77235;BME280;66253;50.526;14.974;2024-03-02T04:58:57;98208.34;;;9.21;94.87
77235;BME280;66253;50.526;14.974;2024-03-02T05:01:25;98211.61;;;9.21;95.14
77235;BME280;66253;50.526;14.974;2024-03-02T05:03:53;98211.17;;;9.19;95.46
77235;BME280;66253;50.526;14.974;2024-03-02T05:06:21;98214.33;;;9.21;95.59
77235;BME280;66253;50.526;14.974;2024-03-02T05:08:49;98215.17;;;9.21;95.55
77235;BME280;66253;50.526;14.974;2024-03-02T05:11:17;98216.48;;;9.22;95.82
77235;BME280;66253;50.526;14.974;2024-03-02T05:13:45;98216.71;;;9.23;95.85
77235;BME280;66253;50.526;14.974;2024-03-02T05:16:14;98218.00;;;9.24;95.40
77235;BME280;66253;50.526;14.974;2024-03-02T05:18:42;98216.25;;;9.25;95.57
77235;BME280;66253;50.526;14.974;2024-03-02T05:21:10;98214.42;;;9.25;95.86
77235;BME280;66253;50.526;14.974;2024-03-02T05:23:38;98218.66;;;9.25;95.33
77235;BME280;66253;50.526;14.974;2024-03-02T05:26:06;98220.04;;;9.24;95.42
77235;BME280;66253;50.526;14.974;2024-03-02T05:28:36;98224.33;;;9.24;95.83
77235;BME280;66253;50.526;14.974;2024-03-02T05:31:05;98224.32;;;9.24;95.81
77235;BME280;66253;50.526;14.974;2024-03-02T05:33:33;98228.90;;;9.25;95.42
77235;BME280;66253;50.526;14.974;2024-03-02T05:36:02;98226.86;;;9.24;95.68
77235;BME280;66253;50.526;14.974;2024-03-02T05:38:30;98238.08;;;9.25;95.59
77235;BME280;66253;50.526;14.974;2024-03-02T05:40:58;98237.77;;;9.24;95.16
77235;BME280;66253;50.526;14.974;2024-03-02T05:43:26;98239.48;;;9.24;95.61
77235;BME280;66253;50.526;14.974;2024-03-02T05:45:55;98244.15;;;9.23;95.25
77235;BME280;66253;50.526;14.974;2024-03-02T05:48:23;98245.05;;;9.23;95.84
77235;BME280;66253;50.526;14.974;2024-03-02T05:50:51;98247.64;;;9.22;96.01
77235;BME280;66253;50.526;14.974;2024-03-02T05:53:19;98246.45;;;9.22;95.92
77235;BME280;66253;50.526;14.974;2024-03-02T05:55:47;98248.12;;;9.22;95.72
77235;BME280;66253;50.526;14.974;2024-03-02T05:58:15;98250.67;;;9.22;96.35
77235;BME280;66253;50.526;14.974;2024-03-02T06:00:43;98253.83;;;9.21;96.11
77235;BME280;66253;50.526;14.974;2024-03-02T06:03:11;98250.95;;;9.21;95.97
77235;BME280;66253;50.526;14.974;2024-03-02T06:05:40;98256.24;;;9.20;96.10
77235;BME280;66253;50.526;14.974;2024-03-02T06:08:08;98259.55;;;9.20;96.47
77235;BME280;66253;50.526;14.974;2024-03-02T06:10:36;98258.16;;;9.20;96.40
77235;BME280;66253;50.526;14.974;2024-03-02T06:13:05;98257.20;;;9.22;96.74
77235;BME280;66253;50.526;14.974;2024-03-02T06:15:33;98257.59;;;9.23;96.41
77235;BME280;66253;50.526;14.974;2024-03-02T06:18:01;98261.12;;;9.24;96.28
77235;BME280;66253;50.526;14.974;2024-03-02T06:20:29;98261.77;;;9.24;96.22
77235;BME280;66253;50.526;14.974;2024-03-02T06:22:57;98262.62;;;9.25;96.60
77235;BME280;66253;50.526;14.974;2024-03-02T06:25:26;98260.13;;;9.24;96.43
77235;BME280;66253;50.526;14.974;2024-03-02T06:27:54;98261.65;;;9.24;96.64
77235;BME280;66253;50.526;14.974;2024-03-02T06:30:22;98265.14;;;9.25;96.63
77235;BME280;66253;50.526;14.974;2024-03-02T06:32:51;98268.62;;;9.27;96.24
77235;BME280;66253;50.526;14.974;2024-03-02T06:35:19;98274.39;;;9.27;96.52
77235;BME280;66253;50.526;14.974;2024-03-02T06:37:47;98274.38;;;9.27;95.96
77235;BME280;66253;50.526;14.974;2024-03-02T06:40:17;98277.73;;;9.28;96.14
77235;BME280;66253;50.526;14.974;2024-03-02T06:42:45;98278.51;;;9.29;96.44
77235;BME280;66253;50.526;14.974;2024-03-02T06:45:14;98283.89;;;9.30;96.06
77235;BME280;66253;50.526;14.974;2024-03-02T06:47:42;98284.42;;;9.30;96.05
77235;BME280;66253;50.526;14.974;2024-03-02T06:50:11;98288.83;;;9.30;96.05
77235;BME280;66253;50.526;14.974;2024-03-02T06:52:39;98295.77;;;9.31;95.81
77235;BME280;66253;50.526;14.974;2024-03-02T06:55:08;98297.84;;;9.31;96.09
77235;BME280;66253;50.526;14.974;2024-03-02T06:57:36;98300.64;;;9.32;95.94
77235;BME280;66253;50.526;14.974;2024-03-02T07:00:08;98300.07;;;9.33;95.83
77235;BME280;66253;50.526;14.974;2024-03-02T07:02:36;98307.32;;;9.34;96.19
77235;BME280;66253;50.526;14.974;2024-03-02T07:05:04;98306.71;;;9.35;95.84
77235;BME280;66253;50.526;14.974;2024-03-02T07:07:32;98311.31;;;9.35;96.20
77235;BME280;66253;50.526;14.974;2024-03-02T07:10:01;98316.36;;;9.34;95.61
77235;BME280;66253;50.526;14.974;2024-03-02T07:12:32;98317.65;;;9.33;95.92
77235;BME280;66253;50.526;14.974;2024-03-02T07:15:00;98323.55;;;9.31;95.09
77235;BME280;66253;50.526;14.974;2024-03-02T07:17:30;98328.51;;;9.28;94.82
77235;BME280;66253;50.526;14.974;2024-03-02T07:19:58;98329.39;;;9.25;95.07
77235;BME280;66253;50.526;14.974;2024-03-02T07:22:27;98339.31;;;9.22;94.49
77235;BME280;66253;50.526;14.974;2024-03-02T07:24:55;98336.50;;;9.20;94.81
77235;BME280;66253;50.526;14.974;2024-03-02T07:27:23;98339.50;;;9.18;94.77
77235;BME280;66253;50.526;14.974;2024-03-02T07:29:51;98335.44;;;9.18;94.69
77235;BME280;66253;50.526;14.974;2024-03-02T07:32:19;98338.77;;;9.19;94.87
77235;BME280;66253;50.526;14.974;2024-03-02T07:34:47;98339.86;;;9.21;94.87
77235;BME280;66253;50.526;14.974;2024-03-02T07:37:15;98336.50;;;9.23;94.72
77235;BME280;66253;50.526;14.974;2024-03-02T07:39:45;98345.20;;;9.26;94.73
77235;BME280;66253;50.526;14.974;2024-03-02T07:42:16;98345.33;;;9.26;94.30
77235;BME280;66253;50.526;14.974;2024-03-02T07:44:44;98339.46;;;9.27;94.14
77235;BME280;66253;50.526;14.974;2024-03-02T07:47:13;98341.57;;;9.29;93.88
77235;BME280;66253;50.526;14.974;2024-03-02T07:49:43;98340.99;;;9.30;93.85
77235;BME280;66253;50.526;14.974;2024-03-02T07:52:12;98337.16;;;9.31;94.35
77235;BME280;66253;50.526;14.974;2024-03-02T07:54:40;98338.96;;;9.35;94.13
77235;BME280;66253;50.526;14.974;2024-03-02T07:57:08;98339.88;;;9.36;93.77
77235;BME280;66253;50.526;14.974;2024-03-02T07:59:36;98338.82;;;9.37;93.85
77235;BME280;66253;50.526;14.974;2024-03-02T08:02:04;98333.27;;;9.38;93.87
77235;BME280;66253;50.526;14.974;2024-03-02T08:04:33;98335.94;;;9.42;94.01
77235;BME280;66253;50.526;14.974;2024-03-02T08:07:01;98340.95;;;9.46;93.55
77235;BME280;66253;50.526;14.974;2024-03-02T08:09:30;98341.09;;;9.52;93.97
77235;BME280;66253;50.526;14.974;2024-03-02T08:11:58;98341.89;;;9.58;93.97
77235;BME280;66253;50.526;14.974;2024-03-02T08:14:26;98341.76;;;9.65;93.84
77235;BME280;66253;50.526;14.974;2024-03-02T08:16:54;98340.42;;;9.73;93.56
77235;BME280;66253;50.526;14.974;2024-03-02T08:19:22;98339.52;;;9.78;93.07
77235;BME280;66253;50.526;14.974;2024-03-02T08:21:51;98342.19;;;9.86;93.84
77235;BME280;66253;50.526;14.974;2024-03-02T08:24:19;98343.32;;;9.95;94.12
77235;BME280;66253;50.526;14.974;2024-03-02T08:26:47;98346.94;;;10.05;94.27
77235;BME280;66253;50.526;14.974;2024-03-02T08:29:15;98351.97;;;10.14;94.02
77235;BME280;66253;50.526;14.974;2024-03-02T08:31:43;98349.70;;;10.22;93.57
77235;BME280;66253;50.526;14.974;2024-03-02T08:34:12;98347.66;;;10.30;93.44
77235;BME280;66253;50.526;14.974;2024-03-02T08:36:40;98351.73;;;10.38;93.30
77235;BME280;66253;50.526;14.974;2024-03-02T08:39:09;98348.07;;;10.44;92.81
77235;BME280;66253;50.526;14.974;2024-03-02T08:41:37;98346.55;;;10.49;92.36
77235;BME280;66253;50.526;14.974;2024-03-02T08:44:06;98351.27;;;10.52;92.26
77235;BME280;66253;50.526;14.974;2024-03-02T08:46:34;98352.58;;;10.53;91.33
77235;BME280;66253;50.526;14.974;2024-03-02T08:49:02;98355.23;;;10.54;91.47
77235;BME280;66253;50.526;14.974;2024-03-02T08:51:30;98355.97;;;10.55;91.16
77235;BME280;66253;50.526;14.974;2024-03-02T08:53:59;98359.19;;;10.55;90.98
77235;BME280;66253;50.526;14.974;2024-03-02T08:56:27;98358.61;;;10.54;90.86
77235;BME280;66253;50.526;14.974;2024-03-02T08:58:55;98358.60;;;10.54;90.59
77235;BME280;66253;50.526;14.974;2024-03-02T09:01:25;98351.16;;;10.53;90.56
77235;BME280;66253;50.526;14.974;2024-03-02T09:03:53;98357.70;;;10.58;90.79
77235;BME280;66253;50.526;14.974;2024-03-02T09:06:22;98356.60;;;10.61;90.21
77235;BME280;66253;50.526;14.974;2024-03-02T09:08:50;98357.48;;;10.63;89.81
77235;BME280;66253;50.526;14.974;2024-03-02T09:11:18;98358.41;;;10.65;89.68
77235;BME280;66253;50.526;14.974;2024-03-02T09:13:46;98354.83;;;10.67;89.70
77235;BME280;66253;50.526;14.974;2024-03-02T09:16:14;98355.19;;;10.72;89.91
77235;BME280;66253;50.526;14.974;2024-03-02T09:18:42;98352.59;;;10.77;89.93
77235;BME280;66253;50.526;14.974;2024-03-02T09:21:11;98350.13;;;10.82;89.83
77235;BME280;66253;50.526;14.974;2024-03-02T09:23:39;98351.93;;;10.89;89.55
77235;BME280;66253;50.526;14.974;2024-03-02T09:26:07;98350.36;;;10.94;89.95
77235;BME280;66253;50.526;14.974;2024-03-02T09:28:35;98351.45;;;11.00;89.71
77235;BME280;66253;50.526;14.974;2024-03-02T09:31:03;98352.33;;;11.07;89.87
77235;BME280;66253;50.526;14.974;2024-03-02T09:33:31;98350.39;;;11.15;89.66
77235;BME280;66253;50.526;14.974;2024-03-02T09:36:01;98357.13;;;11.21;88.82
77235;BME280;66253;50.526;14.974;2024-03-02T09:38:30;98357.64;;;11.26;88.85
77235;BME280;66253;50.526;14.974;2024-03-02T09:40:59;98359.71;;;11.30;89.11
77235;BME280;66253;50.526;14.974;2024-03-02T09:43:28;98357.73;;;11.34;88.60
77235;BME280;66253;50.526;14.974;2024-03-02T09:45:56;98360.02;;;11.38;88.48
77235;BME280;66253;50.526;14.974;2024-03-02T09:48:24;98360.77;;;11.39;88.13
77235;BME280;66253;50.526;14.974;2024-03-02T09:50:53;98360.30;;;11.39;87.38
77235;BME280;66253;50.526;14.974;2024-03-02T09:53:21;98365.08;;;11.41;87.79
77235;BME280;66253;50.526;14.974;2024-03-02T09:55:50;98360.64;;;11.41;86.73
77235;BME280;66253;50.526;14.974;2024-03-02T09:58:18;98361.13;;;11.39;86.15
77235;BME280;66253;50.526;14.974;2024-03-02T10:00:46;98360.98;;;11.39;86.95
77235;BME280;66253;50.526;14.974;2024-03-02T10:03:14;98358.83;;;11.40;86.38
77235;BME280;66253;50.526;14.974;2024-03-02T10:05:43;98358.34;;;11.40;85.66
77235;BME280;66253;50.526;14.974;2024-03-02T10:08:11;98354.36;;;11.43;85.16
77235;BME280;66253;50.526;14.974;2024-03-02T10:10:40;98357.20;;;11.43;84.97
77235;BME280;66253;50.526;14.974;2024-03-02T10:13:09;98356.27;;;11.44;85.15
77235;BME280;66253;50.526;14.974;2024-03-02T10:15:38;98355.23;;;11.47;85.00
77235;BME280;66253;50.526;14.974;2024-03-02T10:18:10;98355.80;;;11.51;84.78
77235;BME280;66253;50.526;14.974;2024-03-02T10:20:39;98355.23;;;11.54;84.45
77235;BME280;66253;50.526;14.974;2024-03-02T10:23:15;98353.84;;;11.57;84.33
77235;BME280;66253;50.526;14.974;2024-03-02T10:25:44;98352.42;;;11.60;84.94
77235;BME280;66253;50.526;14.974;2024-03-02T10:28:12;98351.73;;;11.60;84.19
77235;BME280;66253;50.526;14.974;2024-03-02T10:30:40;98349.96;;;11.58;83.91
77235;BME280;66253;50.526;14.974;2024-03-02T10:33:08;98347.63;;;11.58;83.28
77235;BME280;66253;50.526;14.974;2024-03-02T10:35:36;98346.54;;;11.56;83.85
77235;BME280;66253;50.526;14.974;2024-03-02T10:38:06;98347.23;;;11.58;83.93
77235;BME280;66253;50.526;14.974;2024-03-02T10:40:34;98346.54;;;11.61;84.06
77235;BME280;66253;50.526;14.974;2024-03-02T10:43:04;98346.17;;;11.63;84.21
77235;BME280;66253;50.526;14.974;2024-03-02T10:45:32;98344.31;;;11.67;84.19
77235;BME280;66253;50.526;14.974;2024-03-02T10:48:02;98343.63;;;11.72;84.40
77235;BME280;66253;50.526;14.974;2024-03-02T10:50:31;98343.17;;;11.78;84.38
77235;BME280;66253;50.526;14.974;2024-03-02T10:52:59;98346.17;;;11.87;84.34
77235;BME280;66253;50.526;14.974;2024-03-02T10:55:27;98343.23;;;11.91;83.39
77235;BME280;66253;50.526;14.974;2024-03-02T10:57:56;98340.48;;;11.96;82.88
77235;BME280;66253;50.526;14.974;2024-03-02T11:00:28;98338.64;;;12.00;82.52
77235;BME280;66253;50.526;14.974;2024-03-02T11:03:05;98339.04;;;12.06;83.44
77235;BME280;66253;50.526;14.974;2024-03-02T11:05:36;98335.59;;;12.13;83.66
77235;BME280;66253;50.526;14.974;2024-03-02T11:08:07;98331.40;;;12.19;82.47
77235;BME280;66253;50.526;14.974;2024-03-02T11:10:40;98324.20;;;12.21;82.21
77235;BME280;66253;50.526;14.974;2024-03-02T11:13:11;98325.27;;;12.26;82.50
77235;BME280;66253;50.526;14.974;2024-03-02T11:15:41;98322.78;;;12.28;81.67
77235;BME280;66253;50.526;14.974;2024-03-02T11:18:12;98317.75;;;12.32;81.52
77235;BME280;66253;50.526;14.974;2024-03-02T11:20:41;98315.15;;;12.34;81.34
77235;BME280;66253;50.526;14.974;2024-03-02T11:23:10;98315.83;;;12.39;80.55
77235;BME280;66253;50.526;14.974;2024-03-02T11:25:38;98311.81;;;12.42;81.08
77235;BME280;66253;50.526;14.974;2024-03-02T11:28:07;98312.34;;;12.43;80.91
77235;BME280;66253;50.526;14.974;2024-03-02T11:30:51;98310.34;;;12.43;79.77
77235;BME280;66253;50.526;14.974;2024-03-02T11:33:26;98307.02;;;12.42;78.80
77235;BME280;66253;50.526;14.974;2024-03-02T11:35:54;98307.69;;;12.40;79.16
77235;BME280;66253;50.526;14.974;2024-03-02T11:38:23;98303.39;;;12.40;79.62
77235;BME280;66253;50.526;14.974;2024-03-02T11:40:52;98301.11;;;12.39;79.86
77235;BME280;66253;50.526;14.974;2024-03-02T11:43:21;98301.08;;;12.37;79.99
77235;BME280;66253;50.526;14.974;2024-03-02T11:45:50;98301.41;;;12.37;80.54
77235;BME280;66253;50.526;14.974;2024-03-02T11:48:26;98303.07;;;12.37;79.41
77235;BME280;66253;50.526;14.974;2024-03-02T11:50:54;98303.62;;;12.37;79.28
77235;BME280;66253;50.526;14.974;2024-03-02T11:53:26;98301.52;;;12.36;78.97
77235;BME280;66253;50.526;14.974;2024-03-02T11:55:56;98305.00;;;12.35;78.87
77235;BME280;66253;50.526;14.974;2024-03-02T11:58:25;98303.33;;;12.32;78.68
77235;BME280;66253;50.526;14.974;2024-03-02T12:00:55;98304.36;;;12.30;78.92
77235;BME280;66253;50.526;14.974;2024-03-02T12:03:24;98303.10;;;12.31;78.87
77235;BME280;66253;50.526;14.974;2024-03-02T12:05:53;98301.02;;;12.29;79.23
77235;BME280;66253;50.526;14.974;2024-03-02T12:08:22;98305.21;;;12.26;78.11
77235;BME280;66253;50.526;14.974;2024-03-02T12:11:00;98302.78;;;12.19;77.65
77235;BME280;66253;50.526;14.974;2024-03-02T12:13:28;98302.80;;;12.12;77.36
77235;BME280;66253;50.526;14.974;2024-03-02T12:15:56;98303.11;;;12.11;78.08
77235;BME280;66253;50.526;14.974;2024-03-02T12:18:25;98299.77;;;12.08;78.00
77235;BME280;66253;50.526;14.974;2024-03-02T12:20:53;98295.54;;;12.05;77.84
77235;BME280;66253;50.526;14.974;2024-03-02T12:23:21;98297.09;;;12.02;77.80
77235;BME280;66253;50.526;14.974;2024-03-02T12:25:50;98298.39;;;12.01;77.64
77235;BME280;66253;50.526;14.974;2024-03-02T12:28:18;98303.93;;;12.02;78.18
77235;BME280;66253;50.526;14.974;2024-03-02T12:30:47;98297.86;;;12.03;77.83
77235;BME280;66253;50.526;14.974;2024-03-02T12:33:18;98293.95;;;12.05;77.36
77235;BME280;66253;50.526;14.974;2024-03-02T12:35:48;98293.80;;;12.07;77.59
77235;BME280;66253;50.526;14.974;2024-03-02T12:38:17;98293.04;;;12.10;78.27
77235;BME280;66253;50.526;14.974;2024-03-02T12:40:45;98291.91;;;12.16;78.05
77235;BME280;66253;50.526;14.974;2024-03-02T12:43:15;98297.67;;;12.21;77.04
77235;BME280;66253;50.526;14.974;2024-03-02T12:45:43;98288.43;;;12.23;77.48
77235;BME280;66253;50.526;14.974;2024-03-02T12:48:11;98282.58;;;12.28;77.46
77235;BME280;66253;50.526;14.974;2024-03-02T12:50:41;98280.95;;;12.29;76.59
77235;BME280;66253;50.526;14.974;2024-03-02T12:53:15;98282.84;;;12.31;75.84
77235;BME280;66253;50.526;14.974;2024-03-02T12:55:44;98278.98;;;12.33;75.79
77235;BME280;66253;50.526;14.974;2024-03-02T12:58:20;98275.88;;;12.35;76.03
77235;BME280;66253;50.526;14.974;2024-03-02T13:00:48;98272.00;;;12.38;75.95
77235;BME280;66253;50.526;14.974;2024-03-02T13:03:19;98270.26;;;12.45;76.49